sensor_id;sensor_type;location;lat;lon;timestamp;P1;durP1;ratioP1;P2;durP2;ratioP2
37647;SDS011;23490;53.656;10.076;2023-04-15T00:01:28;9.55;;;5.05;;
37647;SDS011;23490;53.656;10.076;2023-04-15T00:03:54;8.43;;;4.80;;
37647;SDS011;23490;53.656;10.076;2023-04-15T00:06:19;7.85;;;4.45;;
37647;SDS011;23490;53.656;10.076;2023-04-15T00:08:46;7.65;;;4.47;;
37647;SDS011;23490;53.656;10.076;2023-04-15T00:11:12;8.73;;;4.72;;
37647;SDS011;23490;53.656;10.076;2023-04-15T00:13:38;7.07;;;4.57;;
37647;SDS011;23490;53.656;10.076;2023-04-15T00:16:04;7.80;;;4.30;;
37647;SDS011;23490;53.656;10.076;2023-04-15T00:18:30;7.43;;;4.20;;
37647;SDS011;23490;53.656;10.076;2023-04-15T00:20:56;7.47;;;4.03;;
37647;SDS011;23490;53.656;10.076;2023-04-15T00:23:21;6.07;;;3.30;;
37647;SDS011;23490;53.656;10.076;2023-04-15T00:25:46;6.47;;;3.80;;
37647;SDS011;23490;53.656;10.076;2023-04-15T00:28:12;6.68;;;3.70;;
37647;SDS011;23490;53.656;10.076;2023-04-15T00:30:37;6.22;;;3.28;;
37647;SDS011;23490;53.656;10.076;2023-04-15T00:33:03;6.35;;;3.60;;
37647;SDS011;23490;53.656;10.076;2023-04-15T00:35:28;6.10;;;3.45;;
37647;SDS011;23490;53.656;10.076;2023-04-15T00:37:56;5.55;;;3.35;;
37647;SDS011;23490;53.656;10.076;2023-04-15T00:40:22;7.38;;;4.00;;
37647;SDS011;23490;53.656;10.076;2023-04-15T00:42:48;8.80;;;3.75;;
37647;SDS011;23490;53.656;10.076;2023-04-15T00:45:14;7.03;;;3.95;;
37647;SDS011;23490;53.656;10.076;2023-04-15T00:47:40;7.05;;;3.35;;
37647;SDS011;23490;53.656;10.076;2023-04-15T00:50:07;9.07;;;3.97;;
37647;SDS011;23490;53.656;10.076;2023-04-15T00:52:33;6.95;;;3.58;;
37647;SDS011;23490;53.656;10.076;2023-04-15T00:54:59;7.57;;;3.83;;
37647;SDS011;23490;53.656;10.076;2023-04-15T00:57:24;8.32;;;3.97;;
37647;SDS011;23490;53.656;10.076;2023-04-15T00:59:51;7.45;;;3.83;;
37647;SDS011;23490;53.656;10.076;2023-04-15T01:02:16;8.13;;;4.22;;
37647;SDS011;23490;53.656;10.076;2023-04-15T01:04:42;9.00;;;4.82;;
37647;SDS011;23490;53.656;10.076;2023-04-15T01:07:07;7.47;;;4.22;;
37647;SDS011;23490;53.656;10.076;2023-04-15T01:09:33;9.00;;;4.90;;
37647;SDS011;23490;53.656;10.076;2023-04-15T01:11:58;8.35;;;4.70;;
37647;SDS011;23490;53.656;10.076;2023-04-15T01:14:24;8.07;;;4.50;;
37647;SDS011;23490;53.656;10.076;2023-04-15T01:16:49;8.75;;;4.70;;
37647;SDS011;23490;53.656;10.076;2023-04-15T01:19:17;9.23;;;4.70;;
37647;SDS011;23490;53.656;10.076;2023-04-15T01:21:43;8.70;;;4.95;;
37647;SDS011;23490;53.656;10.076;2023-04-15T01:24:09;9.43;;;5.10;;
37647;SDS011;23490;53.656;10.076;2023-04-15T01:26:38;9.40;;;5.43;;
37647;SDS011;23490;53.656;10.076;2023-04-15T01:29:05;11.45;;;5.82;;
37647;SDS011;23490;53.656;10.076;2023-04-15T01:31:31;9.43;;;5.20;;
37647;SDS011;23490;53.656;10.076;2023-04-15T01:33:56;9.60;;;5.35;;
37647;SDS011;23490;53.656;10.076;2023-04-15T01:36:22;9.82;;;5.38;;
37647;SDS011;23490;53.656;10.076;2023-04-15T01:38:48;10.15;;;5.32;;
37647;SDS011;23490;53.656;10.076;2023-04-15T01:41:13;10.45;;;5.50;;
37647;SDS011;23490;53.656;10.076;2023-04-15T01:47:00;9.85;;;5.32;;
37647;SDS011;23490;53.656;10.076;2023-04-15T01:49:26;9.32;;;5.22;;
37647;SDS011;23490;53.656;10.076;2023-04-15T01:51:51;10.00;;;5.70;;
37647;SDS011;23490;53.656;10.076;2023-04-15T01:54:18;10.48;;;5.45;;
37647;SDS011;23490;53.656;10.076;2023-04-15T01:56:43;11.13;;;6.45;;
37647;SDS011;23490;53.656;10.076;2023-04-15T01:59:08;9.70;;;5.82;;
37647;SDS011;23490;53.656;10.076;2023-04-15T02:01:34;11.45;;;6.18;;
37647;SDS011;23490;53.656;10.076;2023-04-15T02:03:59;10.95;;;5.93;;
37647;SDS011;23490;53.656;10.076;2023-04-15T02:06:25;11.48;;;6.63;;
37647;SDS011;23490;53.656;10.076;2023-04-15T02:08:50;11.55;;;6.40;;
37647;SDS011;23490;53.656;10.076;2023-04-15T02:11:15;12.38;;;5.85;;
37647;SDS011;23490;53.656;10.076;2023-04-15T02:13:40;13.30;;;7.07;;
37647;SDS011;23490;53.656;10.076;2023-04-15T02:16:16;10.95;;;6.07;;
37647;SDS011;23490;53.656;10.076;2023-04-15T02:18:45;12.10;;;7.30;;
37647;SDS011;23490;53.656;10.076;2023-04-15T02:21:11;12.80;;;6.68;;
37647;SDS011;23490;53.656;10.076;2023-04-15T02:23:37;12.02;;;6.75;;
37647;SDS011;23490;53.656;10.076;2023-04-15T02:26:02;12.35;;;6.95;;
37647;SDS011;23490;53.656;10.076;2023-04-15T02:28:27;12.20;;;6.70;;
37647;SDS011;23490;53.656;10.076;2023-04-15T02:30:53;11.75;;;6.47;;
37647;SDS011;23490;53.656;10.076;2023-04-15T02:33:21;13.95;;;7.18;;
37647;SDS011;23490;53.656;10.076;2023-04-15T02:35:46;14.77;;;6.78;;
37647;SDS011;23490;53.656;10.076;2023-04-15T02:38:12;14.43;;;7.88;;
37647;SDS011;23490;53.656;10.076;2023-04-15T02:40:39;15.43;;;8.30;;
37647;SDS011;23490;53.656;10.076;2023-04-15T02:43:04;15.90;;;7.80;;
37647;SDS011;23490;53.656;10.076;2023-04-15T02:45:31;15.27;;;8.00;;
37647;SDS011;23490;53.656;10.076;2023-04-15T02:47:57;16.08;;;8.45;;
37647;SDS011;23490;53.656;10.076;2023-04-15T02:50:22;17.83;;;9.18;;
37647;SDS011;23490;53.656;10.076;2023-04-15T02:52:49;15.30;;;7.97;;
37647;SDS011;23490;53.656;10.076;2023-04-15T02:55:15;15.18;;;8.57;;
37647;SDS011;23490;53.656;10.076;2023-04-15T02:57:42;17.10;;;9.10;;
37647;SDS011;23490;53.656;10.076;2023-04-15T03:00:08;20.35;;;10.20;;
37647;SDS011;23490;53.656;10.076;2023-04-15T03:02:38;19.65;;;10.27;;
37647;SDS011;23490;53.656;10.076;2023-04-15T03:05:04;20.25;;;10.50;;
37647;SDS011;23490;53.656;10.076;2023-04-15T03:07:31;21.17;;;9.98;;
37647;SDS011;23490;53.656;10.076;2023-04-15T03:09:56;22.45;;;10.88;;
37647;SDS011;23490;53.656;10.076;2023-04-15T03:12:21;22.10;;;11.07;;
37647;SDS011;23490;53.656;10.076;2023-04-15T03:14:47;24.42;;;11.75;;
37647;SDS011;23490;53.656;10.076;2023-04-15T03:17:14;24.20;;;12.27;;
37647;SDS011;23490;53.656;10.076;2023-04-15T03:19:40;25.17;;;12.82;;
37647;SDS011;23490;53.656;10.076;2023-04-15T03:22:05;23.67;;;11.75;;
37647;SDS011;23490;53.656;10.076;2023-04-15T03:24:30;26.15;;;12.18;;
37647;SDS011;23490;53.656;10.076;2023-04-15T03:26:56;26.75;;;12.63;;
37647;SDS011;23490;53.656;10.076;2023-04-15T03:29:22;24.30;;;12.55;;
37647;SDS011;23490;53.656;10.076;2023-04-15T03:31:47;21.33;;;12.02;;
37647;SDS011;23490;53.656;10.076;2023-04-15T03:34:13;23.77;;;12.05;;
37647;SDS011;23490;53.656;10.076;2023-04-15T03:36:38;23.02;;;11.50;;
37647;SDS011;23490;53.656;10.076;2023-04-15T03:39:05;28.60;;;12.52;;
37647;SDS011;23490;53.656;10.076;2023-04-15T03:41:31;24.00;;;11.20;;
37647;SDS011;23490;53.656;10.076;2023-04-15T03:43:56;24.05;;;11.50;;
37647;SDS011;23490;53.656;10.076;2023-04-15T03:46:22;25.33;;;11.55;;
37647;SDS011;23490;53.656;10.076;2023-04-15T03:48:49;25.55;;;11.68;;
37647;SDS011;23490;53.656;10.076;2023-04-15T03:51:16;25.67;;;12.07;;
37647;SDS011;23490;53.656;10.076;2023-04-15T03:53:41;28.30;;;13.13;;
37647;SDS011;23490;53.656;10.076;2023-04-15T03:56:07;26.42;;;12.15;;
37647;SDS011;23490;53.656;10.076;2023-04-15T03:58:32;28.00;;;12.90;;
37647;SDS011;23490;53.656;10.076;2023-04-15T04:00:57;26.30;;;12.73;;
37647;SDS011;23490;53.656;10.076;2023-04-15T04:03:22;28.42;;;13.63;;
37647;SDS011;23490;53.656;10.076;2023-04-15T04:05:48;27.58;;;12.20;;
37647;SDS011;23490;53.656;10.076;2023-04-15T04:08:15;26.10;;;11.88;;
37647;SDS011;23490;53.656;10.076;2023-04-15T04:10:41;27.85;;;12.80;;
37647;SDS011;23490;53.656;10.076;2023-04-15T04:13:06;25.33;;;12.82;;
37647;SDS011;23490;53.656;10.076;2023-04-15T04:15:32;29.27;;;13.05;;
37647;SDS011;23490;53.656;10.076;2023-04-15T04:17:57;27.50;;;12.75;;
37647;SDS011;23490;53.656;10.076;2023-04-15T04:20:23;25.75;;;12.77;;
37647;SDS011;23490;53.656;10.076;2023-04-15T04:22:48;27.30;;;13.70;;
37647;SDS011;23490;53.656;10.076;2023-04-15T04:25:14;31.77;;;13.50;;
37647;SDS011;23490;53.656;10.076;2023-04-15T04:27:39;30.08;;;14.38;;
37647;SDS011;23490;53.656;10.076;2023-04-15T04:30:05;35.53;;;15.20;;
37647;SDS011;23490;53.656;10.076;2023-04-15T04:32:31;33.80;;;15.05;;
37647;SDS011;23490;53.656;10.076;2023-04-15T04:34:56;34.28;;;15.75;;
37647;SDS011;23490;53.656;10.076;2023-04-15T04:37:22;35.65;;;15.35;;
37647;SDS011;23490;53.656;10.076;2023-04-15T04:39:48;38.83;;;17.33;;
37647;SDS011;23490;53.656;10.076;2023-04-15T04:42:14;37.53;;;16.90;;
37647;SDS011;23490;53.656;10.076;2023-04-15T04:44:39;34.80;;;16.70;;
37647;SDS011;23490;53.656;10.076;2023-04-15T04:47:04;40.17;;;17.85;;
37647;SDS011;23490;53.656;10.076;2023-04-15T04:49:31;41.25;;;18.40;;
37647;SDS011;23490;53.656;10.076;2023-04-15T04:51:56;39.72;;;18.75;;
37647;SDS011;23490;53.656;10.076;2023-04-15T04:54:22;42.30;;;18.42;;
37647;SDS011;23490;53.656;10.076;2023-04-15T04:56:49;44.17;;;18.00;;
37647;SDS011;23490;53.656;10.076;2023-04-15T04:59:15;40.92;;;19.00;;
37647;SDS011;23490;53.656;10.076;2023-04-15T05:01:41;43.08;;;20.27;;
37647;SDS011;23490;53.656;10.076;2023-04-15T05:04:06;46.58;;;20.33;;
37647;SDS011;23490;53.656;10.076;2023-04-15T05:06:32;47.20;;;20.83;;
37647;SDS011;23490;53.656;10.076;2023-04-15T05:08:57;46.03;;;20.20;;
37647;SDS011;23490;53.656;10.076;2023-04-15T05:11:23;43.53;;;20.33;;
37647;SDS011;23490;53.656;10.076;2023-04-15T05:13:48;43.47;;;19.95;;
37647;SDS011;23490;53.656;10.076;2023-04-15T05:16:14;42.08;;;20.08;;
37647;SDS011;23490;53.656;10.076;2023-04-15T05:18:40;46.38;;;21.10;;
37647;SDS011;23490;53.656;10.076;2023-04-15T05:21:05;47.92;;;21.95;;
37647;SDS011;23490;53.656;10.076;2023-04-15T05:23:31;47.72;;;21.05;;
37647;SDS011;23490;53.656;10.076;2023-04-15T05:25:56;40.83;;;20.85;;
37647;SDS011;23490;53.656;10.076;2023-04-15T05:28:21;46.20;;;21.85;;
37647;SDS011;23490;53.656;10.076;2023-04-15T05:30:47;42.88;;;19.77;;
37647;SDS011;23490;53.656;10.076;2023-04-15T05:33:12;44.50;;;20.40;;
37647;SDS011;23490;53.656;10.076;2023-04-15T05:35:38;44.67;;;20.70;;
37647;SDS011;23490;53.656;10.076;2023-04-15T05:38:03;44.22;;;20.30;;
37647;SDS011;23490;53.656;10.076;2023-04-15T05:40:31;43.40;;;20.17;;
37647;SDS011;23490;53.656;10.076;2023-04-15T05:42:57;43.88;;;20.52;;
37647;SDS011;23490;53.656;10.076;2023-04-15T05:45:22;40.75;;;19.30;;
37647;SDS011;23490;53.656;10.076;2023-04-15T05:47:48;38.30;;;19.55;;
37647;SDS011;23490;53.656;10.076;2023-04-15T05:50:18;42.13;;;19.27;;
37647;SDS011;23490;53.656;10.076;2023-04-15T05:52:43;40.30;;;20.45;;
37647;SDS011;23490;53.656;10.076;2023-04-15T05:55:10;39.95;;;19.35;;
37647;SDS011;23490;53.656;10.076;2023-04-15T05:57:37;41.53;;;20.52;;
37647;SDS011;23490;53.656;10.076;2023-04-15T06:00:03;40.20;;;18.70;;
37647;SDS011;23490;53.656;10.076;2023-04-15T06:02:30;42.25;;;18.58;;
37647;SDS011;23490;53.656;10.076;2023-04-15T06:04:56;44.75;;;20.17;;
37647;SDS011;23490;53.656;10.076;2023-04-15T06:07:22;44.17;;;20.33;;
37647;SDS011;23490;53.656;10.076;2023-04-15T06:09:48;38.08;;;16.77;;
37647;SDS011;23490;53.656;10.076;2023-04-15T06:12:13;45.38;;;20.67;;
37647;SDS011;23490;53.656;10.076;2023-04-15T06:14:39;50.78;;;21.63;;
37647;SDS011;23490;53.656;10.076;2023-04-15T06:17:04;55.17;;;23.75;;
37647;SDS011;23490;53.656;10.076;2023-04-15T06:19:30;46.72;;;22.58;;
37647;SDS011;23490;53.656;10.076;2023-04-15T06:21:56;44.35;;;21.65;;
37647;SDS011;23490;53.656;10.076;2023-04-15T06:24:23;50.80;;;23.42;;
37647;SDS011;23490;53.656;10.076;2023-04-15T06:26:49;51.78;;;23.38;;
37647;SDS011;23490;53.656;10.076;2023-04-15T06:29:14;53.08;;;25.20;;
37647;SDS011;23490;53.656;10.076;2023-04-15T06:31:40;49.38;;;24.40;;
37647;SDS011;23490;53.656;10.076;2023-04-15T06:34:06;46.97;;;21.15;;
37647;SDS011;23490;53.656;10.076;2023-04-15T06:36:31;47.28;;;22.67;;
37647;SDS011;23490;53.656;10.076;2023-04-15T06:38:57;46.95;;;22.90;;
37647;SDS011;23490;53.656;10.076;2023-04-15T06:41:22;43.70;;;21.50;;
37647;SDS011;23490;53.656;10.076;2023-04-15T06:43:48;49.55;;;22.98;;
37647;SDS011;23490;53.656;10.076;2023-04-15T06:46:13;48.88;;;25.30;;
37647;SDS011;23490;53.656;10.076;2023-04-15T06:48:38;51.15;;;24.65;;
37647;SDS011;23490;53.656;10.076;2023-04-15T06:51:06;51.65;;;25.40;;
37647;SDS011;23490;53.656;10.076;2023-04-15T06:53:31;54.05;;;25.33;;
37647;SDS011;23490;53.656;10.076;2023-04-15T06:55:57;56.25;;;25.48;;
37647;SDS011;23490;53.656;10.076;2023-04-15T06:58:22;53.17;;;24.65;;
37647;SDS011;23490;53.656;10.076;2023-04-15T07:00:48;55.65;;;27.13;;
37647;SDS011;23490;53.656;10.076;2023-04-15T07:03:14;51.10;;;25.58;;
37647;SDS011;23490;53.656;10.076;2023-04-15T07:05:39;57.88;;;25.67;;
37647;SDS011;23490;53.656;10.076;2023-04-15T07:08:05;53.95;;;24.83;;
37647;SDS011;23490;53.656;10.076;2023-04-15T07:10:34;58.60;;;25.13;;
37647;SDS011;23490;53.656;10.076;2023-04-15T07:12:59;56.33;;;25.90;;
37647;SDS011;23490;53.656;10.076;2023-04-15T07:15:26;54.05;;;27.23;;
37647;SDS011;23490;53.656;10.076;2023-04-15T07:17:52;58.45;;;27.00;;
37647;SDS011;23490;53.656;10.076;2023-04-15T07:20:18;53.47;;;26.52;;
37647;SDS011;23490;53.656;10.076;2023-04-15T07:22:43;57.25;;;26.25;;
37647;SDS011;23490;53.656;10.076;2023-04-15T07:25:09;55.53;;;25.85;;
37647;SDS011;23490;53.656;10.076;2023-04-15T07:27:34;56.95;;;28.02;;
37647;SDS011;23490;53.656;10.076;2023-04-15T07:30:00;55.05;;;27.02;;
37647;SDS011;23490;53.656;10.076;2023-04-15T07:32:26;53.70;;;24.50;;
37647;SDS011;23490;53.656;10.076;2023-04-15T07:34:51;53.53;;;26.73;;
37647;SDS011;23490;53.656;10.076;2023-04-15T07:37:17;53.65;;;26.55;;
37647;SDS011;23490;53.656;10.076;2023-04-15T07:40:26;54.28;;;25.73;;
37647;SDS011;23490;53.656;10.076;2023-04-15T07:42:34;54.70;;;25.45;;
37647;SDS011;23490;53.656;10.076;2023-04-15T07:44:59;57.60;;;27.58;;
37647;SDS011;23490;53.656;10.076;2023-04-15T07:47:25;59.45;;;28.52;;
37647;SDS011;23490;53.656;10.076;2023-04-15T07:49:52;48.45;;;24.65;;
37647;SDS011;23490;53.656;10.076;2023-04-15T07:52:17;52.15;;;26.08;;
37647;SDS011;23490;53.656;10.076;2023-04-15T07:54:43;54.10;;;26.73;;
37647;SDS011;23490;53.656;10.076;2023-04-15T07:57:09;54.55;;;25.30;;
37647;SDS011;23490;53.656;10.076;2023-04-15T07:59:35;52.92;;;25.45;;
37647;SDS011;23490;53.656;10.076;2023-04-15T08:02:00;49.25;;;25.98;;
37647;SDS011;23490;53.656;10.076;2023-04-15T08:04:26;53.72;;;24.65;;
37647;SDS011;23490;53.656;10.076;2023-04-15T08:06:52;50.72;;;24.95;;
37647;SDS011;23490;53.656;10.076;2023-04-15T08:09:17;51.83;;;25.50;;
37647;SDS011;23490;53.656;10.076;2023-04-15T08:11:43;50.42;;;26.23;;
37647;SDS011;23490;53.656;10.076;2023-04-15T08:14:09;51.53;;;25.52;;
37647;SDS011;23490;53.656;10.076;2023-04-15T08:16:34;50.20;;;25.95;;
37647;SDS011;23490;53.656;10.076;2023-04-15T08:19:01;45.72;;;24.48;;
37647;SDS011;23490;53.656;10.076;2023-04-15T08:21:26;49.90;;;25.48;;
37647;SDS011;23490;53.656;10.076;2023-04-15T08:23:51;48.97;;;26.30;;
37647;SDS011;23490;53.656;10.076;2023-04-15T08:26:18;45.20;;;22.40;;
37647;SDS011;23490;53.656;10.076;2023-04-15T08:28:45;48.67;;;25.05;;
37647;SDS011;23490;53.656;10.076;2023-04-15T08:31:11;43.03;;;24.23;;
37647;SDS011;23490;53.656;10.076;2023-04-15T08:33:39;46.05;;;23.48;;
37647;SDS011;23490;53.656;10.076;2023-04-15T08:36:04;45.63;;;23.77;;
37647;SDS011;23490;53.656;10.076;2023-04-15T08:38:31;46.88;;;24.33;;
37647;SDS011;23490;53.656;10.076;2023-04-15T08:40:57;45.65;;;22.95;;
37647;SDS011;23490;53.656;10.076;2023-04-15T08:43:27;47.08;;;24.13;;
37647;SDS011;23490;53.656;10.076;2023-04-15T08:45:58;47.72;;;24.52;;
37647;SDS011;23490;53.656;10.076;2023-04-15T08:48:29;44.78;;;24.75;;
37647;SDS011;23490;53.656;10.076;2023-04-15T08:50:57;45.65;;;23.60;;
37647;SDS011;23490;53.656;10.076;2023-04-15T08:53:27;50.35;;;26.13;;
37647;SDS011;23490;53.656;10.076;2023-04-15T08:55:53;47.08;;;24.55;;
37647;SDS011;23490;53.656;10.076;2023-04-15T08:58:21;43.97;;;22.65;;
37647;SDS011;23490;53.656;10.076;2023-04-15T09:00:46;45.58;;;24.60;;
37647;SDS011;23490;53.656;10.076;2023-04-15T09:03:12;51.53;;;26.70;;
37647;SDS011;23490;53.656;10.076;2023-04-15T09:05:39;52.20;;;25.20;;
37647;SDS011;23490;53.656;10.076;2023-04-15T09:08:04;47.97;;;26.33;;
37647;SDS011;23490;53.656;10.076;2023-04-15T09:10:30;48.08;;;24.33;;
37647;SDS011;23490;53.656;10.076;2023-04-15T09:12:57;49.40;;;25.45;;
37647;SDS011;23490;53.656;10.076;2023-04-15T09:15:23;48.45;;;25.40;;
37647;SDS011;23490;53.656;10.076;2023-04-15T09:17:49;44.55;;;25.15;;
37647;SDS011;23490;53.656;10.076;2023-04-15T09:20:15;51.33;;;25.33;;
37647;SDS011;23490;53.656;10.076;2023-04-15T09:22:43;48.28;;;24.08;;
37647;SDS011;23490;53.656;10.076;2023-04-15T09:27:48;44.78;;;25.38;;
37647;SDS011;23490;53.656;10.076;2023-04-15T09:30:15;42.75;;;22.85;;
37647;SDS011;23490;53.656;10.076;2023-04-15T09:32:48;43.45;;;23.52;;
37647;SDS011;23490;53.656;10.076;2023-04-15T09:35:15;42.38;;;22.80;;
37647;SDS011;23490;53.656;10.076;2023-04-15T09:37:40;40.38;;;23.38;;
37647;SDS011;23490;53.656;10.076;2023-04-15T09:40:06;44.28;;;22.73;;
37647;SDS011;23490;53.656;10.076;2023-04-15T09:42:33;36.65;;;20.27;;
37647;SDS011;23490;53.656;10.076;2023-04-15T09:45:11;35.80;;;20.77;;
37647;SDS011;23490;53.656;10.076;2023-04-15T09:47:38;37.13;;;20.88;;
37647;SDS011;23490;53.656;10.076;2023-04-15T09:50:04;33.90;;;18.85;;
37647;SDS011;23490;53.656;10.076;2023-04-15T09:52:30;34.47;;;20.13;;
37647;SDS011;23490;53.656;10.076;2023-04-15T09:54:57;32.40;;;18.77;;
37647;SDS011;23490;53.656;10.076;2023-04-15T09:57:23;35.03;;;18.90;;
37647;SDS011;23490;53.656;10.076;2023-04-15T09:59:50;34.63;;;19.58;;
37647;SDS011;23490;53.656;10.076;2023-04-15T10:02:17;31.45;;;18.17;;
37647;SDS011;23490;53.656;10.076;2023-04-15T10:04:44;28.83;;;17.77;;
37647;SDS011;23490;53.656;10.076;2023-04-15T10:07:12;32.13;;;17.38;;
37647;SDS011;23490;53.656;10.076;2023-04-15T10:09:39;26.77;;;16.88;;
37647;SDS011;23490;53.656;10.076;2023-04-15T10:12:04;26.15;;;16.13;;
37647;SDS011;23490;53.656;10.076;2023-04-15T10:14:32;28.02;;;16.27;;
37647;SDS011;23490;53.656;10.076;2023-04-15T10:17:03;24.83;;;15.20;;
37647;SDS011;23490;53.656;10.076;2023-04-15T10:19:33;22.13;;;14.18;;
37647;SDS011;23490;53.656;10.076;2023-04-15T10:22:01;21.70;;;14.57;;
37647;SDS011;23490;53.656;10.076;2023-04-15T10:24:27;26.13;;;15.90;;
37647;SDS011;23490;53.656;10.076;2023-04-15T10:26:54;26.30;;;15.27;;
37647;SDS011;23490;53.656;10.076;2023-04-15T10:29:21;25.30;;;15.68;;
37647;SDS011;23490;53.656;10.076;2023-04-15T10:31:49;22.45;;;13.90;;
37647;SDS011;23490;53.656;10.076;2023-04-15T10:34:15;21.50;;;13.73;;
37647;SDS011;23490;53.656;10.076;2023-04-15T10:36:42;19.70;;;12.25;;
37647;SDS011;23490;53.656;10.076;2023-04-15T10:42:11;16.10;;;10.73;;
37647;SDS011;23490;53.656;10.076;2023-04-15T10:44:43;16.02;;;10.85;;
37647;SDS011;23490;53.656;10.076;2023-04-15T10:47:14;15.90;;;9.90;;
37647;SDS011;23490;53.656;10.076;2023-04-15T10:52:15;13.80;;;9.20;;
37647;SDS011;23490;53.656;10.076;2023-04-15T10:54:41;14.77;;;9.73;;
37647;SDS011;23490;53.656;10.076;2023-04-15T10:57:08;14.80;;;9.50;;
37647;SDS011;23490;53.656;10.076;2023-04-15T10:59:59;17.23;;;9.63;;
37647;SDS011;23490;53.656;10.076;2023-04-15T11:02:43;16.05;;;9.75;;
37647;SDS011;23490;53.656;10.076;2023-04-15T11:08:09;14.20;;;9.88;;
37647;SDS011;23490;53.656;10.076;2023-04-15T11:13:04;11.73;;;8.23;;
37647;SDS011;23490;53.656;10.076;2023-04-15T11:15:42;10.93;;;7.82;;
37647;SDS011;23490;53.656;10.076;2023-04-15T11:18:15;12.45;;;7.93;;
37647;SDS011;23490;53.656;10.076;2023-04-15T11:20:42;10.90;;;7.32;;
37647;SDS011;23490;53.656;10.076;2023-04-15T11:23:14;10.77;;;7.00;;
37647;SDS011;23490;53.656;10.076;2023-04-15T11:25:42;10.50;;;7.22;;
37647;SDS011;23490;53.656;10.076;2023-04-15T11:28:15;11.27;;;7.35;;
37647;SDS011;23490;53.656;10.076;2023-04-15T11:30:41;13.75;;;7.90;;
37647;SDS011;23490;53.656;10.076;2023-04-15T11:33:07;14.00;;;8.23;;
37647;SDS011;23490;53.656;10.076;2023-04-15T11:35:34;13.30;;;7.50;;
37647;SDS011;23490;53.656;10.076;2023-04-15T11:38:03;11.57;;;7.63;;
37647;SDS011;23490;53.656;10.076;2023-04-15T11:40:29;12.52;;;7.70;;
37647;SDS011;23490;53.656;10.076;2023-04-15T11:45:30;9.82;;;6.85;;
37647;SDS011;23490;53.656;10.076;2023-04-15T11:48:06;9.95;;;6.65;;
37647;SDS011;23490;53.656;10.076;2023-04-15T11:50:35;10.98;;;7.68;;
37647;SDS011;23490;53.656;10.076;2023-04-15T11:53:04;10.18;;;7.05;;
37647;SDS011;23490;53.656;10.076;2023-04-15T11:55:32;10.70;;;7.47;;
37647;SDS011;23490;53.656;10.076;2023-04-15T11:58:11;12.98;;;8.65;;
37647;SDS011;23490;53.656;10.076;2023-04-15T12:00:42;16.15;;;8.18;;
37647;SDS011;23490;53.656;10.076;2023-04-15T12:11:21;11.30;;;7.63;;
37647;SDS011;23490;53.656;10.076;2023-04-15T12:14:05;12.77;;;8.02;;
37647;SDS011;23490;53.656;10.076;2023-04-15T12:16:43;12.73;;;8.07;;
37647;SDS011;23490;53.656;10.076;2023-04-15T12:19:14;17.13;;;8.98;;
37647;SDS011;23490;53.656;10.076;2023-04-15T12:21:47;14.18;;;8.70;;
37647;SDS011;23490;53.656;10.076;2023-04-15T12:24:13;12.63;;;8.40;;
37647;SDS011;23490;53.656;10.076;2023-04-15T12:26:45;14.75;;;9.15;;
37647;SDS011;23490;53.656;10.076;2023-04-15T12:29:17;15.05;;;9.40;;
37647;SDS011;23490;53.656;10.076;2023-04-15T12:31:51;13.38;;;8.55;;
37647;SDS011;23490;53.656;10.076;2023-04-15T12:34:29;14.77;;;8.70;;
37647;SDS011;23490;53.656;10.076;2023-04-15T12:37:00;15.10;;;9.23;;
37647;SDS011;23490;53.656;10.076;2023-04-15T12:39:29;13.18;;;8.50;;
37647;SDS011;23490;53.656;10.076;2023-04-15T12:41:56;13.63;;;8.63;;
37647;SDS011;23490;53.656;10.076;2023-04-15T12:44:22;13.32;;;8.77;;
37647;SDS011;23490;53.656;10.076;2023-04-15T12:46:48;18.60;;;9.82;;
37647;SDS011;23490;53.656;10.076;2023-04-15T12:49:15;14.95;;;8.68;;
37647;SDS011;23490;53.656;10.076;2023-04-15T12:51:43;14.55;;;8.95;;
37647;SDS011;23490;53.656;10.076;2023-04-15T12:54:08;13.20;;;8.73;;
37647;SDS011;23490;53.656;10.076;2023-04-15T12:56:34;11.15;;;7.97;;
37647;SDS011;23490;53.656;10.076;2023-04-15T12:58:59;14.40;;;8.88;;
37647;SDS011;23490;53.656;10.076;2023-04-15T13:01:24;14.02;;;8.35;;
37647;SDS011;23490;53.656;10.076;2023-04-15T13:03:50;12.30;;;8.07;;
37647;SDS011;23490;53.656;10.076;2023-04-15T13:06:16;11.73;;;7.43;;
37647;SDS011;23490;53.656;10.076;2023-04-15T13:08:41;12.90;;;7.57;;
37647;SDS011;23490;53.656;10.076;2023-04-15T13:11:07;11.15;;;6.90;;
37647;SDS011;23490;53.656;10.076;2023-04-15T13:13:33;13.40;;;7.38;;
37647;SDS011;23490;53.656;10.076;2023-04-15T13:15:59;12.52;;;7.78;;
37647;SDS011;23490;53.656;10.076;2023-04-15T13:18:25;10.95;;;7.45;;
37647;SDS011;23490;53.656;10.076;2023-04-15T13:20:51;11.30;;;7.75;;
37647;SDS011;23490;53.656;10.076;2023-04-15T13:23:16;12.57;;;7.90;;
37647;SDS011;23490;53.656;10.076;2023-04-15T13:25:41;13.85;;;8.27;;
37647;SDS011;23490;53.656;10.076;2023-04-15T13:28:07;12.75;;;7.35;;
37647;SDS011;23490;53.656;10.076;2023-04-15T13:30:39;11.82;;;7.45;;
37647;SDS011;23490;53.656;10.076;2023-04-15T13:33:04;10.13;;;6.70;;
37647;SDS011;23490;53.656;10.076;2023-04-15T13:35:31;10.65;;;6.38;;
37647;SDS011;23490;53.656;10.076;2023-04-15T13:37:56;10.98;;;6.40;;
37647;SDS011;23490;53.656;10.076;2023-04-15T13:40:22;11.75;;;6.97;;
37647;SDS011;23490;53.656;10.076;2023-04-15T13:42:47;10.50;;;6.88;;
37647;SDS011;23490;53.656;10.076;2023-04-15T13:45:13;9.25;;;5.75;;
37647;SDS011;23490;53.656;10.076;2023-04-15T13:47:38;10.30;;;5.20;;
37647;SDS011;23490;53.656;10.076;2023-04-15T13:50:04;8.65;;;6.00;;
37647;SDS011;23490;53.656;10.076;2023-04-15T13:52:31;8.63;;;5.40;;
37647;SDS011;23490;53.656;10.076;2023-04-15T13:54:57;10.63;;;5.90;;
37647;SDS011;23490;53.656;10.076;2023-04-15T13:57:23;9.00;;;5.93;;
37647;SDS011;23490;53.656;10.076;2023-04-15T13:59:50;9.23;;;5.88;;
37647;SDS011;23490;53.656;10.076;2023-04-15T14:02:15;9.48;;;5.88;;
37647;SDS011;23490;53.656;10.076;2023-04-15T14:04:40;9.13;;;5.95;;
37647;SDS011;23490;53.656;10.076;2023-04-15T14:07:06;9.70;;;6.07;;
37647;SDS011;23490;53.656;10.076;2023-04-15T14:09:31;10.40;;;6.35;;
37647;SDS011;23490;53.656;10.076;2023-04-15T14:11:57;9.57;;;6.38;;
37647;SDS011;23490;53.656;10.076;2023-04-15T14:14:24;10.15;;;6.63;;
37647;SDS011;23490;53.656;10.076;2023-04-15T14:16:53;9.95;;;6.15;;
37647;SDS011;23490;53.656;10.076;2023-04-15T14:19:20;8.50;;;6.40;;
37647;SDS011;23490;53.656;10.076;2023-04-15T14:21:46;8.45;;;5.88;;
37647;SDS011;23490;53.656;10.076;2023-04-15T14:24:11;9.82;;;6.47;;
37647;SDS011;23490;53.656;10.076;2023-04-15T14:26:36;10.02;;;6.45;;
37647;SDS011;23490;53.656;10.076;2023-04-15T14:29:02;10.23;;;6.47;;
37647;SDS011;23490;53.656;10.076;2023-04-15T14:31:27;9.77;;;6.55;;
37647;SDS011;23490;53.656;10.076;2023-04-15T14:33:53;10.32;;;6.93;;
37647;SDS011;23490;53.656;10.076;2023-04-15T14:36:18;9.63;;;6.18;;
37647;SDS011;23490;53.656;10.076;2023-04-15T14:38:43;8.98;;;5.72;;
37647;SDS011;23490;53.656;10.076;2023-04-15T14:41:10;9.18;;;6.32;;